Time;durP1;ratioP1;P1;durP2;ratioP2;P2;SDS_P1;SDS_P2;PMS_P1;PMS_P2;Temp;Humidity;BMP_temperature;BMP_pressure;BME280_temperature;BME280_humidity;BME280_pressure;Samples;Min_cycle;Max_cycle;Signal;HPM_P1;HPM_P2
2022/12/05 00:00:17;;;;;;;28.42;23.92;;;4.80;99.90;;;;;;5102332;28;20101;-73
2022/12/05 00:02:43;;;;;;;26.77;22.48;;;4.80;99.90;;;;;;5100603;28;20130;-74
2022/12/05 00:05:11;;;;;;;28.13;24.55;;;4.80;99.90;;;;;;5069055;28;20131;-74
2022/12/05 00:07:37;;;;;;;30.83;25.58;;;4.80;99.90;;;;;;5098600;28;20051;-73
2022/12/05 00:10:05;;;;;;;31.02;25.63;;;4.80;99.90;;;;;;5082667;28;20036;-74
2022/12/05 00:12:30;;;;;;;31.13;26.30;;;4.80;99.90;;;;;;5083711;28;20043;-74
2022/12/05 00:14:56;;;;;;;33.35;26.55;;;4.80;99.90;;;;;;5082328;28;20040;-75
2022/12/05 00:17:22;;;;;;;29.88;26.08;;;4.80;99.90;;;;;;5080893;27;20134;-74
2022/12/05 00:19:48;;;;;;;33.78;28.65;;;4.80;99.90;;;;;;5115275;27;20079;-74
2022/12/05 00:22:13;;;;;;;32.55;28.02;;;4.80;99.90;;;;;;5081822;28;20031;-75
2022/12/05 00:24:39;;;;;;;32.08;27.58;;;4.80;99.90;;;;;;5101317;28;20047;-74
2022/12/05 00:27:05;;;;;;;33.20;28.20;;;4.80;99.90;;;;;;5084241;28;20035;-75
2022/12/05 00:29:31;;;;;;;32.97;27.85;;;4.80;99.90;;;;;;5085373;28;20055;-74
2022/12/05 00:31:57;;;;;;;33.90;27.85;;;4.80;99.90;;;;;;5068205;28;20050;-74
2022/12/05 00:34:23;;;;;;;36.25;29.05;;;4.80;99.90;;;;;;5067364;28;20040;-74
2022/12/05 00:36:49;;;;;;;34.90;28.90;;;4.80;99.90;;;;;;5084434;28;20585;-74
2022/12/05 00:39:15;;;;;;;35.67;28.58;;;4.80;99.90;;;;;;5081804;28;20043;-73
2022/12/05 00:41:41;;;;;;;36.38;28.52;;;4.80;99.90;;;;;;5082273;28;20397;-75
2022/12/05 00:44:09;;;;;;;35.00;30.00;;;4.80;99.90;;;;;;5081429;28;20051;-76
2022/12/05 00:46:35;;;;;;;33.78;28.77;;;4.80;99.90;;;;;;5097359;28;20031;-75
2022/12/05 00:49:02;;;;;;;32.80;28.48;;;4.80;99.90;;;;;;5095507;28;20044;-75
2022/12/05 00:51:35;;;;;;;34.97;29.85;;;4.80;99.90;;;;;;5078434;28;20066;-75
2022/12/05 00:54:03;;;;;;;35.58;29.60;;;4.80;99.90;;;;;;5100192;28;20097;-75
2022/12/05 00:56:30;;;;;;;36.30;29.98;;;4.80;99.90;;;;;;5099236;28;20595;-76
2022/12/05 00:58:57;;;;;;;34.80;30.00;;;4.90;99.90;;;;;;5099705;28;20031;-76
2022/12/05 01:01:32;;;;;;;35.58;29.05;;;4.90;99.90;;;;;;5096044;28;20474;-75
2022/12/05 01:04:02;;;;;;;36.53;29.67;;;4.90;99.90;;;;;;5085838;28;20047;-76
2022/12/05 01:06:29;;;;;;;34.08;29.13;;;4.80;99.90;;;;;;5082758;28;20044;-74
2022/12/05 01:08:56;;;;;;;35.95;29.45;;;4.90;99.90;;;;;;5098828;28;20035;-75
2022/12/05 01:11:23;;;;;;;36.85;30.85;;;4.90;99.90;;;;;;5092860;28;20048;-75
2022/12/05 01:13:51;;;;;;;35.92;29.77;;;4.90;99.90;;;;;;5062597;28;20083;-73
2022/12/05 01:16:19;;;;;;;37.05;30.10;;;4.90;99.90;;;;;;5117364;27;20047;-73
2022/12/05 01:18:45;;;;;;;36.83;29.73;;;4.90;99.90;;;;;;5094530;28;20052;-73
2022/12/05 01:21:11;;;;;;;36.55;30.35;;;5.00;99.90;;;;;;5082448;28;20043;-75
2022/12/05 01:23:43;;;;;;;34.67;29.40;;;5.00;99.90;;;;;;5093337;28;20169;-75
2022/12/05 01:26:14;;;;;;;34.55;29.70;;;5.00;99.90;;;;;;5046918;28;20520;-76
2022/12/05 01:28:40;;;;;;;37.25;29.52;;;4.90;99.90;;;;;;5094319;28;20088;-75
2022/12/05 01:31:13;;;;;;;36.78;30.17;;;5.00;99.90;;;;;;5042017;28;20051;-76
2022/12/05 01:33:39;;;;;;;33.85;29.30;;;5.00;99.90;;;;;;5101024;27;20119;-75
2022/12/05 01:36:10;;;;;;;38.75;31.95;;;5.00;99.90;;;;;;5096296;28;20449;-75
2022/12/05 01:38:37;;;;;;;40.90;31.98;;;5.10;99.90;;;;;;5081353;28;20353;-76
2022/12/05 01:41:05;;;;;;;37.97;31.17;;;5.10;99.90;;;;;;5067259;28;20036;-76
2022/12/05 01:43:31;;;;;;;41.08;33.03;;;5.10;99.90;;;;;;5081560;28;20047;-74
2022/12/05 01:45:57;;;;;;;44.65;34.67;;;5.10;99.90;;;;;;5085945;28;20055;-67
2022/12/05 01:48:30;;;;;;;46.45;35.72;;;5.10;99.90;;;;;;5078804;28;20451;-67
2022/12/05 01:50:57;;;;;;;45.90;35.85;;;5.10;99.90;;;;;;5115818;27;20047;-67
2022/12/05 01:53:24;;;;;;;46.45;37.50;;;5.20;99.90;;;;;;5068092;28;20815;-68
2022/12/05 01:55:50;;;;;;;50.70;39.58;;;5.30;99.90;;;;;;5068089;28;20108;-68
2022/12/05 01:58:17;;;;;;;46.38;38.33;;;5.20;99.90;;;;;;5083424;28;20054;-68
2022/12/05 02:00:43;;;;;;;52.60;39.35;;;5.20;99.90;;;;;;5096838;28;20062;-74
2022/12/05 02:03:19;;;;;;;49.78;39.03;;;5.20;99.90;;;;;;5096424;28;20051;-73
2022/12/05 02:05:52;;;;;;;49.72;38.95;;;5.20;99.90;;;;;;5079672;28;20528;-75
2022/12/05 02:08:18;;;;;;;47.97;38.05;;;5.20;99.90;;;;;;5096888;28;20069;-74
2022/12/05 02:10:54;;;;;;;49.92;38.00;;;5.30;99.90;;;;;;5090369;28;20186;-74
2022/12/05 02:13:46;;;;;;;45.88;37.88;;;5.20;99.90;;;;;;5078138;28;20161;-74
2022/12/05 02:16:37;;;;;;;46.90;35.70;;;5.20;99.90;;;;;;5082349;27;20101;-74
2022/12/05 02:19:12;;;;;;;46.30;36.55;;;5.20;99.90;;;;;;5108665;27;20454;-74
2022/12/05 02:21:46;;;;;;;49.60;37.65;;;5.20;99.90;;;;;;5097688;28;20048;-73
2022/12/05 02:24:40;;;;;;;51.08;37.53;;;5.20;99.90;;;;;;5083683;28;20048;-75
2022/12/05 02:27:38;;;;;;;48.90;37.50;;;5.30;99.90;;;;;;5095469;28;20082;-74
2022/12/05 02:30:19;;;;;;;50.05;38.33;;;5.30;99.90;;;;;;5096352;28;20035;-74
2022/12/05 02:33:12;;;;;;;50.17;37.60;;;5.20;99.90;;;;;;5089486;28;20410;-74
2022/12/05 02:35:41;;;;;;;49.22;39.25;;;5.20;99.90;;;;;;5080409;28;20134;-75
2022/12/05 02:38:39;;;;;;;52.05;39.72;;;5.20;99.90;;;;;;5095359;28;20051;-74
2022/12/05 02:41:31;;;;;;;53.08;39.70;;;5.20;99.90;;;;;;5096621;28;20044;-74
2022/12/05 02:44:04;;;;;;;52.67;39.15;;;5.30;99.90;;;;;;5101478;28;20375;-74
2022/12/05 02:46:32;;;;;;;49.33;38.97;;;5.20;99.90;;;;;;5096866;28;20043;-74
2022/12/05 02:49:09;;;;;;;51.30;38.33;;;5.30;99.90;;;;;;5083843;28;20478;-74
2022/12/05 02:51:40;;;;;;;53.00;39.47;;;5.30;99.90;;;;;;5077888;28;20791;-74
2022/12/05 02:54:15;;;;;;;51.20;38.53;;;5.40;99.90;;;;;;5099642;28;20048;-74
2022/12/05 02:56:45;;;;;;;55.35;39.15;;;5.30;99.90;;;;;;5079080;28;20174;-74
2022/12/05 02:59:11;;;;;;;47.72;37.10;;;5.30;99.90;;;;;;5074251;28;20044;-73
2022/12/05 03:01:36;;;;;;;48.83;37.85;;;5.30;99.90;;;;;;5086215;28;20572;-74
2022/12/05 03:04:05;;;;;;;49.53;36.13;;;5.30;99.90;;;;;;5077598;28;20516;-74
2022/12/05 03:06:38;;;;;;;49.03;36.35;;;5.30;99.90;;;;;;5090289;28;20085;-74
2022/12/05 03:09:15;;;;;;;50.35;37.85;;;5.30;99.90;;;;;;5102267;28;20058;-75
2022/12/05 03:11:49;;;;;;;47.63;37.08;;;5.30;99.90;;;;;;5089197;28;20035;-75
2022/12/05 03:14:21;;;;;;;54.65;40.92;;;5.30;99.90;;;;;;5096275;28;20047;-75
2022/12/05 03:16:58;;;;;;;54.85;40.72;;;5.30;99.90;;;;;;5097736;28;20511;-74
2022/12/05 03:19:29;;;;;;;56.40;40.88;;;5.30;99.90;;;;;;5080531;28;20077;-75
2022/12/05 03:21:58;;;;;;;;;;;5.30;99.90;;;;;;5078231;28;20043;-74
2022/12/05 03:24:27;;;;;;;51.35;39.28;;;5.20;99.90;;;;;;5102454;28;20082;-75
2022/12/05 03:27:22;;;;;;;59.33;41.38;;;5.20;99.90;;;;;;5099962;28;20040;-74
2022/12/05 03:30:01;;;;;;;57.75;40.15;;;5.20;99.90;;;;;;5082317;28;20065;-74
2022/12/05 03:32:49;;;;;;;57.50;41.22;;;5.20;99.90;;;;;;5093842;28;20054;-69
2022/12/05 03:35:35;;;;;;;52.88;38.53;;;5.20;99.90;;;;;;5099726;28;20051;-70
2022/12/05 03:38:20;;;;;;;56.53;38.85;;;5.20;99.90;;;;;;5112804;27;20398;-70
2022/12/05 03:40:54;;;;;;;56.45;39.35;;;5.20;99.90;;;;;;5094934;28;20051;-69
2022/12/05 03:43:43;;;;;;;51.85;36.65;;;5.20;99.90;;;;;;5099516;28;20052;-70
2022/12/05 03:46:27;;;;;;;51.60;36.47;;;5.20;99.90;;;;;;5099224;28;20506;-70
2022/12/05 03:49:19;;;;;;;48.63;36.30;;;5.20;99.90;;;;;;5100706;28;20058;-69
2022/12/05 03:52:03;;;;;;;51.33;36.35;;;5.20;99.90;;;;;;5085747;28;20036;-70
2022/12/05 03:54:35;;;;;;;38.90;30.83;;;5.20;99.90;;;;;;5100091;28;20516;-69
2022/12/05 03:57:42;;;;;;;46.58;33.80;;;5.20;99.90;;;;;;5103132;28;20074;-69
2022/12/05 04:00:21;;;;;;;40.67;31.25;;;5.20;99.90;;;;;;5083832;28;20048;-70
2022/12/05 04:02:54;;;;;;;43.92;31.42;;;5.20;99.90;;;;;;5100705;28;20056;-70
2022/12/05 04:05:35;;;;;;;35.55;29.38;;;5.30;99.90;;;;;;5081903;28;20048;-70
2022/12/05 04:08:06;;;;;;;39.75;29.80;;;5.30;99.90;;;;;;5096858;28;20046;-70
2022/12/05 04:10:47;;;;;;;36.72;29.92;;;5.30;99.90;;;;;;5099662;28;20078;-70
2022/12/05 04:13:21;;;;;;;35.65;28.83;;;5.30;99.90;;;;;;5102055;28;20039;-71
2022/12/05 04:18:50;;;;;;;37.72;29.85;;;5.30;99.90;;;;;;5097420;28;20040;-75
2022/12/05 04:21:37;;;;;;;36.03;28.65;;;5.30;99.90;;;;;;5100296;28;20039;-75
2022/12/05 04:27:03;;;;;;;34.85;28.73;;;5.30;99.90;;;;;;5119411;27;20170;-75
2022/12/05 04:29:36;;;;;;;34.38;28.23;;;5.30;99.90;;;;;;5100505;28;20151;-75
2022/12/05 04:32:07;;;;;;;32.83;29.02;;;5.40;99.90;;;;;;5101784;28;20036;-73
2022/12/05 04:34:36;;;;;;;35.00;28.10;;;5.40;99.90;;;;;;5098957;28;20452;-77
2022/12/05 04:37:12;;;;;;;31.17;27.83;;;5.40;99.90;;;;;;5081075;28;20131;-76
2022/12/05 04:39:47;;;;;;;32.03;27.55;;;5.40;99.90;;;;;;5113383;27;20043;-74
2022/12/05 04:42:17;;;;;;;32.25;27.83;;;5.40;99.90;;;;;;5094075;28;20040;-74
2022/12/05 04:45:07;;;;;;;30.80;27.48;;;5.40;99.90;;;;;;5100759;27;20071;-75
2022/12/05 04:47:39;;;;;;;30.73;26.77;;;5.40;99.90;;;;;;5074316;28;20502;-75
2022/12/05 04:50:10;;;;;;;33.50;27.13;;;5.50;99.90;;;;;;5095760;28;20569;-74
2022/12/05 04:52:38;;;;;;;30.00;26.30;;;5.50;99.90;;;;;;5100414;27;20036;-75
2022/12/05 04:55:09;;;;;;;28.83;25.60;;;5.40;99.90;;;;;;5084330;28;20047;-74
2022/12/05 04:57:49;;;;;;;28.48;24.67;;;5.40;99.90;;;;;;5081972;28;20386;-74
2022/12/05 05:00:15;;;;;;;26.52;23.50;;;5.40;99.90;;;;;;5096675;28;20063;-74
2022/12/05 05:02:57;;;;;;;25.77;21.63;;;5.40;99.90;;;;;;5068753;28;20043;-75
2022/12/05 05:05:23;;;;;;;25.92;22.35;;;5.40;99.90;;;;;;5091888;28;20048;-75
2022/12/05 05:07:52;;;;;;;24.55;21.27;;;5.40;99.90;;;;;;5093611;28;20509;-75
2022/12/05 05:10:42;;;;;;;22.75;20.23;;;5.40;99.90;;;;;;5114985;27;20566;-74
2022/12/05 05:13:08;;;;;;;21.30;19.13;;;5.40;99.90;;;;;;5099874;27;20047;-76
2022/12/05 05:15:34;;;;;;;24.10;19.73;;;5.40;99.90;;;;;;5066427;28;20081;-75
2022/12/05 05:17:59;;;;;;;20.48;18.27;;;5.40;99.90;;;;;;5071119;28;20051;-75
2022/12/05 05:20:26;;;;;;;20.33;17.95;;;5.40;99.90;;;;;;5083648;28;20040;-74
2022/12/05 05:22:56;;;;;;;20.23;18.10;;;5.40;99.90;;;;;;5103638;28;20040;-75
2022/12/05 05:25:22;;;;;;;;;;;5.40;99.90;;;;;;5075011;28;20043;-74
2022/12/05 05:27:57;;;;;;;18.27;15.82;;;5.40;99.90;;;;;;5087000;28;19949;-73
2022/12/05 05:30:24;;;;;;;18.30;16.30;;;5.40;99.90;;;;;;5065359;28;20458;-74
2022/12/05 05:32:50;;;;;;;17.95;16.05;;;5.40;99.90;;;;;;5076003;28;20035;-74
2022/12/05 05:35:16;;;;;;;18.50;16.60;;;5.40;99.90;;;;;;5064974;28;20516;-74
2022/12/05 05:37:42;;;;;;;17.75;15.85;;;5.40;99.90;;;;;;5069375;28;20044;-74
2022/12/05 05:40:11;;;;;;;16.92;15.15;;;5.40;99.90;;;;;;5093322;28;20039;-75
2022/12/05 05:42:42;;;;;;;17.40;15.55;;;5.40;99.90;;;;;;5075797;28;20035;-75
2022/12/05 05:45:08;;;;;;;16.65;14.93;;;5.30;99.90;;;;;;5071196;28;20043;-74
2022/12/05 05:47:34;;;;;;;17.23;15.43;;;5.40;99.90;;;;;;5097942;28;20114;-74
2022/12/05 05:50:00;;;;;;;16.52;14.85;;;5.50;99.90;;;;;;5086562;28;20628;-75
2022/12/05 05:52:26;;;;;;;18.45;16.52;;;5.40;99.90;;;;;;5095006;27;20039;-74
2022/12/05 05:54:52;;;;;;;18.02;15.77;;;5.40;99.90;;;;;;5068537;28;20571;-74
2022/12/05 05:57:18;;;;;;;17.75;15.93;;;5.40;99.90;;;;;;5084882;28;20048;-74
2022/12/05 05:59:44;;;;;;;17.98;16.17;;;5.50;99.90;;;;;;5074033;28;20501;-75
2022/12/05 06:02:10;;;;;;;17.33;15.57;;;5.50;99.90;;;;;;5092189;28;20051;-74
2022/12/05 06:04:36;;;;;;;16.92;15.13;;;5.50;99.90;;;;;;5070205;28;20044;-74
2022/12/05 06:07:02;;;;;;;18.08;16.17;;;5.50;99.90;;;;;;5062206;28;20043;-75
2022/12/05 06:09:27;;;;;;;17.75;15.80;;;5.50;99.90;;;;;;5094883;28;20073;-75
2022/12/05 06:11:53;;;;;;;17.75;15.95;;;5.50;99.90;;;;;;5083292;28;20577;-75
2022/12/05 06:14:19;;;;;;;17.80;15.90;;;5.50;99.90;;;;;;5082011;28;20047;-75
2022/12/05 06:16:45;;;;;;;18.15;16.25;;;5.50;99.90;;;;;;5066898;28;20277;-74
2022/12/05 06:19:11;;;;;;;20.13;16.75;;;5.50;99.90;;;;;;5061969;28;20142;-74
2022/12/05 06:21:36;;;;;;;18.70;16.63;;;5.50;99.90;;;;;;5061360;28;20391;-75
2022/12/05 06:24:02;;;;;;;16.73;14.82;;;5.50;99.90;;;;;;5065758;28;20040;-75
2022/12/05 06:26:28;;;;;;;16.77;14.77;;;5.50;99.90;;;;;;5081282;28;20051;-75
2022/12/05 06:28:54;;;;;;;16.85;14.88;;;5.50;99.90;;;;;;5083146;28;21156;-75
2022/12/05 06:31:22;;;;;;;16.83;15.13;;;5.60;99.90;;;;;;5096655;28;20039;-74
2022/12/05 06:33:48;;;;;;;17.08;14.77;;;5.50;99.90;;;;;;5108124;27;20134;-75
2022/12/05 06:36:17;;;;;;;16.13;14.43;;;5.50;99.90;;;;;;5066831;28;20123;-74
2022/12/05 06:38:43;;;;;;;16.58;14.02;;;5.50;99.90;;;;;;5092441;28;20052;-74
2022/12/05 06:41:12;;;;;;;18.00;14.63;;;5.50;99.90;;;;;;5094602;28;20058;-75
2022/12/05 06:43:38;;;;;;;15.80;14.10;;;5.50;99.90;;;;;;5107339;27;20051;-75
2022/12/05 06:46:05;;;;;;;16.92;14.45;;;5.50;99.90;;;;;;5088600;28;20044;-74
2022/12/05 06:48:31;;;;;;;17.92;14.25;;;5.50;99.90;;;;;;5092875;28;20146;-75
2022/12/05 06:50:57;;;;;;;17.88;14.25;;;5.50;99.90;;;;;;5098016;28;20073;-73
2022/12/05 06:53:24;;;;;;;16.90;14.48;;;5.60;99.90;;;;;;5051768;28;20043;-76
2022/12/05 06:56:01;;;;;;;19.83;15.52;;;5.50;99.90;;;;;;5066486;28;20054;-75
2022/12/05 06:58:28;;;;;;;16.00;13.60;;;5.50;99.90;;;;;;5081052;28;20458;-75
2022/12/05 07:03:39;;;;;;;20.92;14.50;;;5.50;99.90;;;;;;5095445;28;20044;-76
2022/12/05 07:06:07;;;;;;;20.83;16.77;;;5.50;99.90;;;;;;5073248;28;20414;-74
2022/12/05 07:08:33;;;;;;;21.65;16.38;;;5.50;99.90;;;;;;5091952;28;20131;-74
2022/12/05 07:10:59;;;;;;;17.58;15.73;;;5.50;99.90;;;;;;5077725;28;20198;-74
2022/12/05 07:13:25;;;;;;;20.92;17.45;;;5.50;99.90;;;;;;5093962;28;20572;-75
2022/12/05 07:15:51;;;;;;;18.55;16.27;;;5.50;99.90;;;;;;5074463;28;20075;-75
2022/12/05 07:18:17;;;;;;;17.77;15.68;;;5.60;99.90;;;;;;5079559;28;20058;-74
2022/12/05 07:20:44;;;;;;;20.92;17.15;;;5.50;99.90;;;;;;5098955;28;20035;-74
2022/12/05 07:23:10;;;;;;;17.88;15.98;;;5.50;99.90;;;;;;5081802;28;20051;-75
2022/12/05 07:25:40;;;;;;;17.30;15.30;;;5.50;99.90;;;;;;5100726;28;20040;-76
2022/12/05 07:28:06;;;;;;;20.45;16.65;;;5.60;99.90;;;;;;5085412;28;20481;-71
2022/12/05 07:30:33;;;;;;;18.58;15.95;;;5.60;99.90;;;;;;5095421;28;20388;-74
2022/12/05 07:32:59;;;;;;;18.08;16.17;;;5.50;99.90;;;;;;5094727;27;20541;-76
2022/12/05 07:35:24;;;;;;;18.13;16.23;;;5.60;99.90;;;;;;5082008;28;20066;-75
2022/12/05 07:37:50;;;;;;;20.33;16.98;;;5.50;99.90;;;;;;5065770;28;20415;-76
2022/12/05 07:40:16;;;;;;;18.92;16.88;;;5.50;99.90;;;;;;5081741;28;20031;-76
2022/12/05 07:42:42;;;;;;;19.63;17.42;;;5.60;99.90;;;;;;5083738;28;20047;-76
2022/12/05 07:45:08;;;;;;;19.38;17.15;;;5.60;99.90;;;;;;5086088;28;20043;-76
2022/12/05 07:47:34;;;;;;;22.85;17.60;;;5.60;99.90;;;;;;5101082;27;20040;-76
2022/12/05 07:49:59;;;;;;;21.10;18.10;;;5.60;99.90;;;;;;5068551;28;20407;-76
2022/12/05 07:52:29;;;;;;;22.40;17.27;;;5.60;99.90;;;;;;5101809;28;20047;-75
2022/12/05 07:54:55;;;;;;;21.73;17.48;;;5.50;99.90;;;;;;5079214;28;20066;-75
2022/12/05 07:57:21;;;;;;;21.90;17.88;;;5.60;99.90;;;;;;5066082;28;20553;-76
2022/12/05 07:59:46;;;;;;;22.45;17.13;;;5.60;99.90;;;;;;5078564;28;20397;-74
2022/12/05 08:02:12;;;;;;;22.50;18.10;;;5.60;99.90;;;;;;5080183;28;20554;-76
2022/12/05 08:04:38;;;;;;;23.27;18.90;;;5.60;99.90;;;;;;5099129;28;20525;-75
2022/12/05 08:07:04;;;;;;;20.67;17.63;;;5.60;99.90;;;;;;5082718;28;20044;-76
2022/12/05 08:09:29;;;;;;;21.45;16.60;;;5.70;99.90;;;;;;5080191;28;20529;-76
2022/12/05 08:11:55;;;;;;;24.50;17.95;;;5.60;99.90;;;;;;5084148;28;20035;-75
2022/12/05 08:14:21;;;;;;;23.00;16.90;;;5.60;99.90;;;;;;5099884;28;20043;-76
2022/12/05 08:16:47;;;;;;;20.25;16.95;;;5.60;99.90;;;;;;5092857;28;20130;-76
2022/12/05 08:19:15;;;;;;;22.48;17.42;;;5.60;99.90;;;;;;5084902;28;20039;-75
2022/12/05 08:21:41;;;;;;;25.75;17.90;;;5.60;99.90;;;;;;5095991;27;20043;-76
2022/12/05 08:24:07;;;;;;;24.15;17.98;;;5.60;99.90;;;;;;5082691;28;20548;-76
2022/12/05 08:26:38;;;;;;;22.75;17.17;;;5.60;99.90;;;;;;5084170;28;20130;-76
2022/12/05 08:29:07;;;;;;;23.95;17.83;;;5.50;99.90;;;;;;5047200;28;20127;-76
2022/12/05 08:31:46;;;;;;;22.50;16.77;;;5.60;99.90;;;;;;5080855;28;20047;-75
2022/12/05 08:34:12;;;;;;;23.58;16.98;;;5.60;99.90;;;;;;5099311;28;20055;-76
2022/12/05 08:36:41;;;;;;;24.05;17.98;;;5.60;99.90;;;;;;5085865;28;20043;-76
2022/12/05 08:39:13;;;;;;;24.80;17.38;;;5.60;99.90;;;;;;5099974;28;20040;-75
2022/12/05 08:41:39;;;;;;;22.88;17.42;;;5.50;99.90;;;;;;5080159;28;20047;-76
2022/12/05 08:44:07;;;;;;;26.20;16.63;;;5.50;99.90;;;;;;5097932;28;20043;-76
2022/12/05 08:46:35;;;;;;;21.35;16.30;;;5.50;99.90;;;;;;5098886;28;20096;-75
2022/12/05 08:49:02;;;;;;;20.45;16.38;;;5.60;99.90;;;;;;5093570;28;20378;-75
2022/12/05 08:51:27;;;;;;;23.30;17.08;;;5.50;99.90;;;;;;5098623;28;20067;-75
2022/12/05 08:53:55;;;;;;;21.40;15.43;;;5.60;99.90;;;;;;5064774;28;20453;-76
2022/12/05 08:56:21;;;;;;;23.00;16.50;;;5.60;99.90;;;;;;5079263;28;20065;-71
2022/12/05 08:58:47;;;;;;;22.08;17.20;;;5.60;99.90;;;;;;5098496;27;20517;-71
2022/12/05 09:01:15;;;;;;;23.65;17.05;;;5.50;99.90;;;;;;5094917;28;20047;-75
2022/12/05 09:03:42;;;;;;;22.40;16.70;;;5.60;99.90;;;;;;5100192;28;20048;-76
2022/12/05 09:06:21;;;;;;;22.30;16.77;;;5.50;99.90;;;;;;5081068;28;20713;-75
2022/12/05 09:08:48;;;;;;;21.70;17.27;;;5.60;99.90;;;;;;5083726;28;20036;-76
2022/12/05 09:11:16;;;;;;;22.50;17.20;;;5.60;99.90;;;;;;5095054;28;20491;-76
2022/12/05 09:13:42;;;;;;;20.13;16.38;;;5.60;99.90;;;;;;5096653;28;20420;-76
2022/12/05 09:16:14;;;;;;;23.40;16.92;;;5.50;99.90;;;;;;5081406;28;20576;-77
2022/12/05 09:18:40;;;;;;;18.80;15.13;;;5.50;99.90;;;;;;5097044;28;20051;-76
2022/12/05 09:21:11;;;;;;;19.63;16.33;;;5.60;99.90;;;;;;5093912;28;20042;-78
2022/12/05 09:23:37;;;;;;;19.40;15.38;;;5.60;99.90;;;;;;5081020;28;20051;-77
2022/12/05 09:26:05;;;;;;;19.52;14.73;;;5.60;99.90;;;;;;5081949;28;20042;-77
2022/12/05 09:28:32;;;;;;;17.25;13.75;;;5.60;99.90;;;;;;5082376;28;20642;-77
2022/12/05 09:31:04;;;;;;;17.63;14.50;;;5.60;99.90;;;;;;5079978;28;20051;-77
2022/12/05 09:33:32;;;;;;;20.08;13.93;;;5.60;99.90;;;;;;5096882;28;20040;-77
2022/12/05 09:36:06;;;;;;;20.15;14.90;;;5.60;99.90;;;;;;5078090;28;20046;-77
2022/12/05 09:38:32;;;;;;;19.00;15.18;;;5.60;99.90;;;;;;5110438;27;20105;-75
2022/12/05 09:44:21;;;;;;;15.57;13.93;;;5.60;99.90;;;;;;5113945;27;20039;-75
2022/12/05 09:47:06;;;;;;;17.23;15.00;;;5.60;99.90;;;;;;5097580;28;20047;-75
2022/12/05 09:49:37;;;;;;;18.20;15.10;;;5.60;99.90;;;;;;5097124;27;20057;-75
2022/12/05 09:52:04;;;;;;;16.48;14.02;;;5.50;99.90;;;;;;5094065;28;20341;-76
2022/12/05 09:54:30;;;;;;;19.92;15.13;;;5.60;99.90;;;;;;5098142;28;20047;-76
2022/12/05 09:56:57;;;;;;;18.48;14.45;;;5.50;99.90;;;;;;5099870;28;20059;-75
2022/12/05 09:59:23;;;;;;;19.05;14.10;;;5.60;99.90;;;;;;5062192;28;20047;-75
2022/12/05 10:02:22;;;;;;;19.70;14.40;;;5.50;99.90;;;;;;5074001;28;20043;-75
2022/12/05 10:04:57;;;;;;;19.10;14.32;;;5.60;99.90;;;;;;5086692;28;20046;-75
2022/12/05 10:07:34;;;;;;;17.88;14.93;;;5.50;99.90;;;;;;5079508;28;20090;-76
2022/12/05 10:10:10;;;;;;;17.90;14.45;;;5.50;99.90;;;;;;5095648;28;20048;-75
2022/12/05 10:12:54;;;;;;;20.00;15.32;;;5.50;99.90;;;;;;5082809;28;20032;-75
2022/12/05 10:15:44;;;;;;;18.25;13.75;;;5.50;99.90;;;;;;5082702;28;20054;-75
2022/12/05 10:18:32;;;;;;;18.63;14.63;;;5.50;99.90;;;;;;5081194;28;20487;-75
2022/12/05 10:21:22;;;;;;;19.08;15.48;;;5.50;99.90;;;;;;5083605;28;20093;-75
2022/12/05 10:23:51;;;;;;;21.17;16.02;;;5.50;99.90;;;;;;5092568;28;20055;-77
2022/12/05 10:26:18;;;;;;;20.00;15.63;;;5.50;99.90;;;;;;5081627;28;20142;-77
2022/12/05 10:28:53;;;;;;;19.83;16.05;;;5.50;99.90;;;;;;5081077;28;20078;-75
2022/12/05 10:31:24;;;;;;;20.83;15.35;;;5.50;99.90;;;;;;5077781;28;20407;-76
2022/12/05 10:34:00;;;;;;;22.95;16.58;;;5.50;99.90;;;;;;5088703;28;20489;-75
2022/12/05 10:36:26;;;;;;;19.90;15.25;;;5.40;99.90;;;;;;5082688;28;20512;-76
2022/12/05 10:38:52;;;;;;;17.85;14.93;;;5.50;99.90;;;;;;5063194;28;20043;-76
2022/12/05 10:41:17;;;;;;;18.63;15.10;;;5.50;99.90;;;;;;5060617;28;20043;-75
2022/12/05 10:43:44;;;;;;;18.40;15.35;;;5.50;99.90;;;;;;5089956;28;20096;-75
2022/12/05 10:46:14;;;;;;;22.23;16.33;;;5.50;99.90;;;;;;5092186;28;20051;-75
2022/12/05 10:48:41;;;;;;;20.20;16.65;;;5.50;99.90;;;;;;5098136;28;20052;-75
2022/12/05 10:51:15;;;;;;;21.90;16.77;;;5.50;99.90;;;;;;5066985;28;20040;-75
2022/12/05 10:53:49;;;;;;;21.92;16.73;;;5.50;99.90;;;;;;5083661;28;20568;-75
2022/12/05 10:56:35;;;;;;;23.50;17.35;;;5.50;99.90;;;;;;5080335;28;20054;-75
2022/12/05 10:59:01;;;;;;;24.02;16.80;;;5.40;99.90;;;;;;5084955;28;20422;-77
2022/12/05 11:01:27;;;;;;;20.33;15.93;;;5.40;99.90;;;;;;5098775;28;20502;-76
2022/12/05 11:03:59;;;;;;;20.17;16.85;;;5.40;99.90;;;;;;5096408;28;20051;-76
2022/12/05 11:06:29;;;;;;;20.17;16.48;;;5.40;99.90;;;;;;5101205;28;20048;-76
2022/12/05 11:08:58;;;;;;;23.00;17.30;;;5.50;99.90;;;;;;5097759;27;20043;-76
2022/12/05 11:11:27;;;;;;;22.02;17.10;;;5.50;99.90;;;;;;5097964;28;20064;-76
2022/12/05 11:14:00;;;;;;;21.83;16.55;;;5.40;99.90;;;;;;5107601;27;20990;-76
2022/12/05 11:16:30;;;;;;;22.33;16.48;;;5.40;99.90;;;;;;5084432;28;20039;-76
2022/12/05 11:18:55;;;;;;;20.88;16.75;;;5.40;99.90;;;;;;5099049;28;20589;-75
2022/12/05 11:21:22;;;;;;;20.70;15.98;;;5.40;99.90;;;;;;5082495;28;20040;-76
2022/12/05 11:23:48;;;;;;;20.65;15.75;;;5.40;99.90;;;;;;5107088;27;20048;-75
2022/12/05 11:26:34;;;;;;;20.48;16.55;;;5.50;99.90;;;;;;5080615;28;20040;-76
2022/12/05 11:29:01;;;;;;;19.98;15.90;;;5.50;99.90;;;;;;5097179;27;20054;-77
2022/12/05 11:31:31;;;;;;;23.65;17.80;;;5.40;99.90;;;;;;5098867;28;20441;-76
2022/12/05 11:34:18;;;;;;;18.70;15.95;;;5.50;99.90;;;;;;5094534;28;20053;-76
2022/12/05 11:36:56;;;;;;;21.25;16.85;;;5.50;99.90;;;;;;5114703;27;20044;-77
2022/12/05 11:39:24;;;;;;;19.98;15.07;;;5.40;99.90;;;;;;5076048;28;20117;-76
2022/12/05 11:42:08;;;;;;;17.40;14.95;;;5.50;99.90;;;;;;5085661;28;20127;-76
2022/12/05 11:45:23;;;;;;;18.30;15.15;;;5.50;99.90;;;;;;5116043;27;20051;-76
2022/12/05 11:47:49;;;;;;;18.52;14.18;;;5.50;99.90;;;;;;5073091;28;20143;-76
2022/12/05 11:50:39;;;;;;;17.48;13.43;;;5.50;99.90;;;;;;5076430;28;20036;-76
2022/12/05 11:53:30;;;;;;;19.55;13.57;;;5.50;99.90;;;;;;5069729;28;20044;-77
2022/12/05 11:56:05;;;;;;;18.80;14.70;;;5.50;99.90;;;;;;5087404;27;20104;-76
2022/12/05 11:58:53;;;;;;;19.73;15.20;;;5.50;99.90;;;;;;5078451;28;20638;-76
2022/12/05 12:01:46;;;;;;;18.17;14.95;;;5.50;99.90;;;;;;5091359;27;20233;-75
2022/12/05 12:04:34;;;;;;;18.23;15.23;;;5.50;99.90;;;;;;5094257;28;20134;-76
2022/12/05 12:07:06;;;;;;;16.70;14.18;;;5.50;99.90;;;;;;5101849;27;20074;-72
2022/12/05 12:09:49;;;;;;;22.15;15.63;;;5.50;99.90;;;;;;5097453;28;20128;-72
2022/12/05 12:12:35;;;;;;;16.58;12.95;;;5.50;99.90;;;;;;5099635;27;20086;-72
2022/12/05 12:15:38;;;;;;;15.18;12.02;;;5.50;99.90;;;;;;5081756;28;20046;-72
2022/12/05 12:18:13;;;;;;;16.63;12.88;;;5.50;99.90;;;;;;5101909;27;20456;-72
2022/12/05 12:20:51;;;;;;;14.63;11.82;;;5.50;99.90;;;;;;5078874;28;20502;-72
2022/12/05 12:23:35;;;;;;;13.10;11.73;;;5.50;99.90;;;;;;5080220;28;21307;-77
2022/12/05 12:26:17;;;;;;;15.63;11.77;;;5.50;99.90;;;;;;5097698;28;20047;-76
2022/12/05 12:28:49;;;;;;;14.85;12.32;;;5.60;99.90;;;;;;5104023;27;20043;-72
2022/12/05 12:31:27;;;;;;;15.20;10.98;;;5.50;99.90;;;;;;5084386;28;20214;-72
2022/12/05 12:34:24;;;;;;;17.08;12.70;;;5.50;99.90;;;;;;5100112;27;20040;-73
2022/12/05 12:37:06;;;;;;;13.52;10.73;;;5.50;99.90;;;;;;5077686;28;20478;-72
2022/12/05 12:39:48;;;;;;;13.80;11.32;;;5.50;99.90;;;;;;5094190;28;20144;-72
2022/12/05 12:42:24;;;;;;;14.07;11.15;;;5.50;99.90;;;;;;5098067;28;20119;-72
2022/12/05 12:45:19;;;;;;;14.52;10.57;;;5.50;99.90;;;;;;5098395;28;20044;-72
2022/12/05 12:48:10;;;;;;;14.07;11.27;;;5.50;99.90;;;;;;5095326;28;20051;-72
2022/12/05 12:50:43;;;;;;;13.38;10.90;;;5.50;99.90;;;;;;5088955;27;20032;-72
2022/12/05 12:53:21;;;;;;;14.55;10.85;;;5.60;99.90;;;;;;5095075;28;20066;-72
2022/12/05 12:56:15;;;;;;;14.40;11.30;;;5.50;99.90;;;;;;5081116;28;20056;-72
2022/12/05 12:59:22;;;;;;;14.38;10.73;;;5.60;99.90;;;;;;5090261;27;20050;-72
2022/12/05 13:02:20;;;;;;;18.20;12.73;;;5.50;99.90;;;;;;5087376;28;20315;-72
2022/12/05 13:04:55;;;;;;;16.13;12.13;;;5.60;99.90;;;;;;5105980;27;20123;-72
2022/12/05 13:07:40;;;;;;;14.50;10.10;;;5.50;99.90;;;;;;5087628;27;20501;-76
2022/12/05 13:10:27;;;;;;;13.77;10.23;;;5.60;99.90;;;;;;5082789;28;20512;-72
2022/12/05 13:12:56;;;;;;;14.20;11.02;;;5.50;99.90;;;;;;5103604;27;20051;-72
2022/12/05 13:15:46;;;;;;;12.57;10.52;;;5.60;99.90;;;;;;5075204;28;21383;-72